Time;durP1;ratioP1;P1;durP2;ratioP2;P2;SDS_P1;SDS_P2;PMS_P1;PMS_P2;Temp;Humidity;BMP_temperature;BMP_pressure;BME280_temperature;BME280_humidity;BME280_pressure;Samples;Min_cycle;Max_cycle;Signal;HPM_P1;HPM_P2
2023/03/14 00:00:15;;;;;;;12.85;6.05;;;;;;;5.67;83.11;97913.19;4485618;31;20531;-66
2023/03/14 00:02:43;;;;;;;14.15;7.00;;;;;;;5.69;83.54;97905.25;4485295;31;20109;-66
2023/03/14 00:05:10;;;;;;;15.13;6.90;;;;;;;5.62;83.41;97898.94;4485265;31;20092;-66
2023/03/14 00:07:39;;;;;;;16.77;6.22;;;;;;;5.59;83.62;97899.19;4485089;31;20095;-66
2023/03/14 00:10:09;;;;;;;13.30;6.57;;;;;;;5.54;84.20;97883.16;4485636;31;20168;-66
2023/03/14 00:12:37;;;;;;;16.52;6.62;;;;;;;5.59;84.63;97892.22;4485035;31;20110;-66
2023/03/14 00:15:06;;;;;;;12.48;6.47;;;;;;;5.50;85.08;97878.22;4485399;31;20096;-66
2023/03/14 00:17:35;;;;;;;13.80;6.53;;;;;;;5.53;86.01;97882.34;4484742;31;20204;-66
2023/03/14 00:20:07;;;;;;;13.95;6.43;;;;;;;5.51;86.42;97877.28;4483086;32;20153;-66
2023/03/14 00:22:35;;;;;;;12.67;6.27;;;;;;;5.57;85.32;97868.16;4484148;32;20166;-66
2023/03/14 00:25:04;;;;;;;18.62;6.75;;;;;;;5.64;85.71;97865.84;4485139;31;20088;-66
2023/03/14 00:27:31;;;;;;;14.55;6.07;;;;;;;5.48;86.93;97864.53;4484953;31;20122;-66
2023/03/14 00:29:59;;;;;;;12.63;6.03;;;;;;;5.46;87.11;97861.22;4485645;32;20115;-66
2023/03/14 00:32:26;;;;;;;14.70;6.90;;;;;;;5.59;86.57;97831.66;4485100;31;20110;-66
2023/03/14 00:34:53;;;;;;;15.55;6.15;;;;;;;5.90;85.37;97847.25;4485223;32;20495;-66
2023/03/14 00:37:21;;;;;;;11.35;5.57;;;;;;;5.91;85.64;97843.69;4484703;31;20104;-66
2023/03/14 00:39:50;;;;;;;12.27;6.43;;;;;;;5.89;85.33;97846.44;4485517;31;20097;-66
2023/03/14 00:42:18;;;;;;;15.25;5.70;;;;;;;5.84;85.67;97836.44;4485077;31;20107;-66
2023/03/14 00:44:46;;;;;;;13.85;5.95;;;;;;;5.72;86.00;97837.44;4485241;32;20151;-66
2023/03/14 00:47:13;;;;;;;12.27;6.28;;;;;;;5.77;85.33;97837.03;4484861;32;20089;-66
2023/03/14 00:49:43;;;;;;;13.62;6.15;;;;;;;5.72;85.19;97828.81;4484877;31;20447;-66
2023/03/14 00:52:12;;;;;;;16.08;5.78;;;;;;;5.78;84.91;97828.31;4484909;31;20100;-66
2023/03/14 00:54:39;;;;;;;14.38;6.45;;;;;;;5.69;84.76;97825.53;4485243;32;20674;-66
2023/03/14 00:57:06;;;;;;;15.63;6.75;;;;;;;5.69;85.25;97824.69;4485286;31;20097;-66
2023/03/14 00:59:34;;;;;;;14.07;6.53;;;;;;;5.64;86.39;97834.66;4485098;31;20492;-66
2023/03/14 01:02:01;;;;;;;13.85;5.95;;;;;;;5.55;86.27;97830.25;4485050;31;20096;-66
2023/03/14 01:04:30;;;;;;;13.52;6.90;;;;;;;5.54;86.95;97824.25;4483430;32;20170;-66
2023/03/14 01:06:57;;;;;;;13.75;6.53;;;;;;;5.48;86.57;97820.38;4485135;32;20189;-66
2023/03/14 01:09:24;;;;;;;14.90;6.18;;;;;;;5.47;87.02;97807.50;4484563;32;20148;-66
2023/03/14 01:11:52;;;;;;;16.23;6.72;;;;;;;5.40;87.11;97811.56;4484693;31;20121;-66
2023/03/14 01:14:19;;;;;;;13.38;6.90;;;;;;;5.36;87.39;97803.22;4485026;31;20108;-66
2023/03/14 01:16:46;;;;;;;16.12;7.05;;;;;;;5.37;87.33;97807.44;4485114;31;20808;-66
2023/03/14 01:19:14;;;;;;;13.60;6.82;;;;;;;5.32;87.37;97805.22;4484380;31;20160;-66
2023/03/14 01:21:41;;;;;;;17.12;6.72;;;;;;;5.32;88.10;97799.22;4485030;31;20155;-66
2023/03/14 01:24:10;;;;;;;14.57;7.25;;;;;;;5.27;88.63;97789.22;4484726;31;20167;-66
2023/03/14 01:26:38;;;;;;;17.00;6.35;;;;;;;5.29;88.22;97782.13;4484988;31;20096;-66
2023/03/14 01:29:06;;;;;;;11.88;6.70;;;;;;;5.28;88.71;97777.06;4484749;31;20532;-66
2023/03/14 01:31:33;;;;;;;14.00;6.97;;;;;;;5.27;89.02;97770.25;4484964;31;20253;-66
2023/03/14 01:34:01;;;;;;;12.60;6.40;;;;;;;5.26;89.30;97766.78;4484479;31;20088;-66
2023/03/14 01:36:28;;;;;;;15.48;6.47;;;;;;;5.21;90.08;97740.41;4485112;31;20096;-66
2023/03/14 01:38:58;;;;;;;12.18;6.50;;;;;;;5.19;90.28;97757.06;4484461;32;20472;-66
2023/03/14 01:41:26;;;;;;;12.60;6.18;;;;;;;5.36;89.94;97753.88;4484722;31;20124;-66
2023/03/14 01:43:54;;;;;;;12.57;6.37;;;;;;;5.24;90.15;97739.31;4484846;32;20097;-66
2023/03/14 01:46:43;;;;;;;12.57;6.30;;;;;;;5.26;90.41;97733.03;4483250;32;20138;-66
2023/03/14 01:49:27;;;;;;;20.60;6.87;;;;;;;5.16;91.99;97719.19;4484354;31;20123;-66
2023/03/14 01:51:54;;;;;;;11.20;6.57;;;;;;;5.26;91.58;97724.44;4484626;32;20091;-66
2023/03/14 01:54:30;;;;;;;15.05;6.53;;;;;;;5.30;91.60;97720.63;4484613;32;20096;-66
2023/03/14 01:57:22;;;;;;;15.02;5.65;;;;;;;5.26;90.97;97712.25;4485180;31;20081;-66
2023/03/14 01:59:57;;;;;;;11.18;6.35;;;;;;;5.19;91.61;97700.75;4483160;32;20101;-66
2023/03/14 02:02:26;;;;;;;15.43;6.25;;;;;;;5.13;92.26;97717.69;4482930;32;20092;-66
2023/03/14 02:04:55;;;;;;;13.05;6.65;;;;;;;5.06;92.74;97708.75;4484313;31;20176;-66
2023/03/14 02:07:27;;;;;;;13.25;6.82;;;;;;;5.07;92.62;97707.81;4483114;32;20413;-66
2023/03/14 02:09:56;;;;;;;13.65;6.35;;;;;;;5.10;92.86;97706.72;4484208;31;20623;-66
2023/03/14 02:12:24;;;;;;;12.57;6.60;;;;;;;5.05;92.93;97704.50;4484158;32;20160;-66
2023/03/14 02:14:51;;;;;;;13.23;7.03;;;;;;;5.02;93.55;97698.75;4484343;31;20114;-66
2023/03/14 02:17:19;;;;;;;13.43;6.60;;;;;;;4.95;93.83;97695.84;4484262;31;20712;-66
2023/03/14 02:20:09;;;;;;;13.85;6.50;;;;;;;5.04;93.82;97704.63;4484324;32;20142;-66
2023/03/14 02:22:38;;;;;;;15.05;6.80;;;;;;;5.01;94.27;97691.91;4483042;32;20092;-66
2023/03/14 02:25:28;;;;;;;12.77;6.70;;;;;;;4.97;94.88;97701.75;4482983;32;20105;-66
2023/03/14 02:27:56;;;;;;;17.83;6.10;;;;;;;4.97;94.82;97686.97;4483374;32;20088;-66
2023/03/14 02:30:26;;;;;;;14.82;6.85;;;;;;;4.88;96.54;97692.13;4482212;32;20135;-66
2023/03/14 02:33:06;;;;;;;14.70;6.22;;;;;;;4.86;97.28;97683.63;4482909;32;20147;-66
2023/03/14 02:35:52;;;;;;;13.25;6.65;;;;;;;4.90;97.04;97669.47;4483044;32;20159;-66
2023/03/14 02:38:24;;;;;;;14.00;6.55;;;;;;;4.95;96.88;97669.88;4483963;31;20103;-66
2023/03/14 02:40:51;;;;;;;17.90;7.28;;;;;;;4.92;97.20;97662.34;4483374;31;20126;-66
2023/03/14 02:43:19;;;;;;;16.75;7.60;;;;;;;4.89;97.59;97663.47;4485659;31;20169;-66
2023/03/14 02:45:48;;;;;;;15.15;6.22;;;;;;;4.98;96.73;97659.25;4486126;31;20115;-66
2023/03/14 02:48:21;;;;;;;15.27;6.70;;;;;;;4.92;97.43;97664.94;4486390;32;20134;-66
2023/03/14 02:50:51;;;;;;;14.50;6.78;;;;;;;4.95;97.61;97647.38;4485870;31;20111;-66
2023/03/14 02:53:21;;;;;;;24.95;6.82;;;;;;;4.96;97.81;97643.00;4484862;32;20130;-66
2023/03/14 02:55:49;;;;;;;13.68;6.87;;;;;;;5.08;97.61;97647.16;4484505;32;20358;-66
2023/03/14 02:58:17;;;;;;;13.02;6.60;;;;;;;5.01;97.63;97656.44;4484728;32;20161;-66
2023/03/14 03:00:46;;;;;;;17.83;7.30;;;;;;;5.05;97.62;97638.81;4486318;31;20100;-66
2023/03/14 03:03:14;;;;;;;13.15;6.68;;;;;;;5.27;96.54;97643.81;4485566;31;20092;-66
2023/03/14 03:05:44;;;;;;;16.48;6.68;;;;;;;5.35;96.12;97644.94;4485717;32;20084;-66
2023/03/14 03:08:12;;;;;;;19.27;6.93;;;;;;;5.13;96.87;97624.22;4486426;31;20481;-66
2023/03/14 03:10:39;;;;;;;12.50;6.22;;;;;;;5.09;97.91;97628.03;4486217;31;20567;-66
2023/03/14 03:13:06;;;;;;;15.77;7.15;;;;;;;5.28;96.98;97632.47;4485610;31;20125;-66
2023/03/14 03:15:34;;;;;;;19.15;6.93;;;;;;;5.24;96.93;97614.66;4486288;32;20115;-66
2023/03/14 03:18:01;;;;;;;12.30;6.68;;;;;;;5.12;96.96;97608.78;4486036;31;20080;-66
2023/03/14 03:20:29;;;;;;;13.38;6.25;;;;;;;5.23;96.99;97608.66;4486180;31;20123;-66
2023/03/14 03:22:58;;;;;;;13.05;7.20;;;;;;;5.44;96.44;97625.97;4485404;31;20091;-66
2023/03/14 03:25:26;;;;;;;12.57;6.85;;;;;;;5.39;97.85;97610.78;4486175;31;20110;-66
2023/03/14 03:27:54;;;;;;;13.68;6.68;;;;;;;5.46;97.53;97600.66;4486090;31;20108;-66
2023/03/14 03:30:21;;;;;;;15.50;6.68;;;;;;;5.41;98.31;97593.28;4486038;31;20096;-66
2023/03/14 03:32:49;;;;;;;12.07;6.07;;;;;;;5.65;97.22;97589.50;4485067;31;20172;-66
2023/03/14 03:35:16;;;;;;;11.45;6.18;;;;;;;5.74;95.67;97585.25;4485820;32;20079;-66
2023/03/14 03:37:44;;;;;;;10.32;5.75;;;;;;;5.76;95.56;97581.56;4485781;31;20172;-66
2023/03/14 03:40:11;;;;;;;12.13;6.62;;;;;;;5.89;94.86;97575.25;4485808;32;20115;-66
2023/03/14 03:42:38;;;;;;;12.82;6.53;;;;;;;5.89;95.03;97588.25;4484985;31;20099;-66
2023/03/14 03:45:07;;;;;;;12.77;7.07;;;;;;;5.85;94.83;97579.94;4480333;31;20088;-66
2023/03/14 03:47:34;;;;;;;13.65;6.43;;;;;;;5.93;94.62;97580.03;4469946;32;20165;-66
2023/03/14 03:50:02;;;;;;;16.55;7.05;;;;;;;5.95;94.65;97582.50;4470251;32;20096;-66
2023/03/14 03:52:31;;;;;;;15.10;7.50;;;;;;;5.98;94.40;97584.87;4469501;32;20118;-66
2023/03/14 03:54:58;;;;;;;12.50;6.75;;;;;;;5.78;94.88;97602.22;4470043;32;20171;-66
2023/03/14 03:57:27;;;;;;;14.73;6.93;;;;;;;5.65;96.05;97611.09;4470111;32;20112;-66
2023/03/14 03:59:55;;;;;;;14.85;6.28;;;;;;;5.59;96.74;97603.03;4470254;32;20109;-66
2023/03/14 04:02:22;;;;;;;14.30;6.50;;;;;;;5.53;97.06;97599.19;4469536;32;20153;-66
2023/03/14 04:04:50;;;;;;;12.93;6.40;;;;;;;5.52;96.92;97610.50;4469599;32;20156;-66
2023/03/14 04:07:19;;;;;;;13.23;6.78;;;;;;;5.51;97.45;97612.31;4468292;32;20116;-66
2023/03/14 04:09:47;;;;;;;15.23;6.68;;;;;;;5.50;97.15;97610.66;4469886;32;20478;-66
2023/03/14 04:12:17;;;;;;;14.52;6.85;;;;;;;5.62;96.77;97607.94;4483439;32;20096;-66
2023/03/14 04:14:46;;;;;;;14.00;7.20;;;;;;;5.80;96.13;97601.13;4485126;32;20398;-66
2023/03/14 04:17:14;;;;;;;15.40;7.20;;;;;;;5.64;96.57;97613.81;4485405;31;20104;-66
2023/03/14 04:19:42;;;;;;;14.20;6.90;;;;;;;5.66;96.83;97622.28;4485317;31;20569;-66
2023/03/14 04:22:09;;;;;;;14.82;7.05;;;;;;;5.64;97.52;97613.81;4485402;32;20123;-66
2023/03/14 04:24:37;;;;;;;13.90;7.15;;;;;;;5.46;98.89;97614.47;4484002;32;20108;-66
2023/03/14 04:27:04;;;;;;;14.93;7.15;;;;;;;5.32;100.00;97618.25;4485337;31;20130;-66
2023/03/14 04:29:32;;;;;;;12.60;6.57;;;;;;;5.58;99.28;97606.56;4485610;31;20104;-66
2023/03/14 04:32:00;;;;;;;17.83;7.25;;;;;;;5.62;99.19;97619.16;4485190;31;20088;-66
2023/03/14 04:34:27;;;;;;;15.55;6.62;;;;;;;5.54;99.54;97608.63;4484939;31;20091;-66
2023/03/14 04:36:55;;;;;;;15.88;6.87;;;;;;;5.46;100.00;97604.06;4485474;31;20115;-66
2023/03/14 04:39:23;;;;;;;15.93;7.40;;;;;;;5.42;100.00;97607.91;4485519;31;20166;-66
2023/03/14 04:41:52;;;;;;;19.92;6.80;;;;;;;5.47;100.00;97616.13;4484962;32;20100;-66
2023/03/14 04:44:19;;;;;;;17.15;6.75;;;;;;;5.55;100.00;97597.25;4484930;31;20088;-66
2023/03/14 04:46:49;;;;;;;10.52;5.90;;;;;;;5.65;99.82;97605.09;4485529;31;20084;-66
2023/03/14 04:49:17;;;;;;;13.10;7.45;;;;;;;5.69;99.45;97593.44;4485090;31;20575;-66
2023/03/14 04:51:45;;;;;;;18.55;7.93;;;;;;;5.71;99.37;97598.50;4483780;32;20386;-66
2023/03/14 04:54:12;;;;;;;21.42;6.85;;;;;;;5.74;98.94;97596.47;4484951;31;20092;-66
2023/03/14 04:56:40;;;;;;;17.10;7.10;;;;;;;5.70;99.37;97592.50;4485352;31;20119;-66
2023/03/14 04:59:08;;;;;;;16.08;6.60;;;;;;;5.57;100.00;97591.94;4485343;31;20156;-66
2023/03/14 05:01:36;;;;;;;13.40;6.45;;;;;;;5.71;99.84;97577.72;4485277;31;20118;-66
2023/03/14 05:04:03;;;;;;;10.90;5.93;;;;;;;5.71;99.69;97595.91;4484372;32;20100;-66
2023/03/14 05:06:31;;;;;;;15.15;6.40;;;;;;;5.73;99.48;97596.59;4484727;32;20104;-66
2023/03/14 05:08:59;;;;;;;10.93;6.10;;;;;;;5.67;99.75;97582.38;4483354;32;20153;-66
2023/03/14 05:11:30;;;;;;;17.62;6.90;;;;;;;5.69;99.63;97596.03;4481416;31;20103;-66
2023/03/14 05:13:57;;;;;;;14.32;7.12;;;;;;;5.73;99.31;97592.22;4484969;31;20099;-66
2023/03/14 05:16:25;;;;;;;15.30;6.15;;;;;;;5.77;99.35;97595.34;4484162;31;20084;-67
2023/03/14 05:18:52;;;;;;;11.00;6.50;;;;;;;5.91;98.48;97586.38;4474823;31;20160;-66
2023/03/14 05:21:22;;;;;;;12.60;7.12;;;;;;;5.98;98.40;97577.91;4480356;31;20113;-67
2023/03/14 05:23:50;;;;;;;13.15;6.43;;;;;;;6.02;97.72;97573.25;4468081;32;20092;-66
2023/03/14 05:26:18;;;;;;;16.35;7.03;;;;;;;6.09;96.63;97576.94;4466984;32;20160;-66
2023/03/14 05:28:46;;;;;;;14.98;6.40;;;;;;;6.08;96.22;97584.87;4468603;32;20089;-66
2023/03/14 05:31:13;;;;;;;16.67;7.22;;;;;;;6.11;96.47;97584.59;4469388;32;20084;-67
2023/03/14 05:33:41;;;;;;;14.98;6.78;;;;;;;6.13;96.23;97585.28;4468993;32;20130;-66
2023/03/14 05:36:08;;;;;;;21.80;7.15;;;;;;;6.22;96.37;97585.28;4469096;32;20153;-66
2023/03/14 05:38:37;;;;;;;14.85;6.80;;;;;;;6.21;96.37;97578.44;4468909;32;20224;-67
2023/03/14 05:41:05;;;;;;;17.48;7.30;;;;;;;6.28;95.67;97570.06;4469479;32;20445;-67
2023/03/14 05:43:32;;;;;;;13.35;6.28;;;;;;;6.41;94.01;97554.19;4468886;32;20160;-66
2023/03/14 05:46:00;;;;;;;15.25;6.78;;;;;;;6.66;92.22;97566.56;4468833;32;20119;-66
2023/03/14 05:48:28;;;;;;;15.07;7.00;;;;;;;6.85;91.16;97570.88;4478671;32;20130;-67
2023/03/14 05:50:56;;;;;;;14.95;6.53;;;;;;;6.85;89.47;97583.06;4483310;31;20533;-67
2023/03/14 05:53:24;;;;;;;16.05;6.93;;;;;;;6.93;89.58;97589.22;4482309;32;20161;-67
2023/03/14 05:55:53;;;;;;;13.32;7.12;;;;;;;7.10;89.03;97589.38;4471704;31;20120;-67
2023/03/14 05:58:23;;;;;;;15.73;7.03;;;;;;;7.17;88.06;97590.47;4481654;32;20096;-67
2023/03/14 06:00:51;;;;;;;15.45;6.68;;;;;;;7.44;86.95;97586.22;4485028;31;20092;-67
2023/03/14 06:03:19;;;;;;;16.00;6.37;;;;;;;7.66;86.73;97584.97;4483778;31;20526;-67
2023/03/14 06:05:49;;;;;;;18.95;6.97;;;;;;;7.96;85.51;97581.19;4482922;32;20454;-67
2023/03/14 06:08:17;;;;;;;11.35;6.85;;;;;;;8.09;84.13;97574.75;4480586;31;20092;-67
2023/03/14 06:10:45;;;;;;;12.00;6.57;;;;;;;8.07;83.45;97582.75;4482939;32;20138;-67
2023/03/14 06:13:13;;;;;;;13.02;5.78;;;;;;;8.24;81.68;97578.47;4483366;31;20083;-67
2023/03/14 06:15:42;;;;;;;12.98;6.18;;;;;;;8.29;81.58;97588.44;4481883;31;20100;-67
2023/03/14 06:18:10;;;;;;;11.73;6.72;;;;;;;8.46;80.76;97590.25;4481387;31;20454;-67
2023/03/14 06:20:41;;;;;;;13.93;5.95;;;;;;;8.47;79.04;97575.38;4483704;31;20087;-67
2023/03/14 06:23:09;;;;;;;13.45;6.03;;;;;;;8.38;79.85;97582.31;4476474;31;20123;-67
2023/03/14 06:25:37;;;;;;;18.98;6.20;;;;;;;8.41;80.30;97579.38;4478496;31;20554;-67
2023/03/14 06:28:04;;;;;;;11.35;6.07;;;;;;;8.33;80.79;97580.16;4485139;31;20168;-67
2023/03/14 06:30:32;;;;;;;14.75;6.45;;;;;;;8.35;80.35;97565.16;4470058;32;20100;-67
2023/03/14 06:32:59;;;;;;;16.17;5.57;;;;;;;8.31;80.25;97568.22;4481446;32;20096;-67
2023/03/14 06:35:26;;;;;;;13.27;6.28;;;;;;;8.34;80.89;97560.94;4485473;31;20101;-67
2023/03/14 06:37:54;;;;;;;18.70;5.68;;;;;;;8.42;80.18;97569.75;4486004;31;20453;-67
2023/03/14 06:40:21;;;;;;;13.52;6.30;;;;;;;8.59;79.89;97568.13;4485477;31;20216;-67
2023/03/14 06:42:49;;;;;;;17.08;6.57;;;;;;;8.69;78.39;97574.88;4485966;31;20163;-67
2023/03/14 06:45:17;;;;;;;15.10;6.30;;;;;;;8.78;78.31;97574.91;4484792;31;20164;-67
2023/03/14 06:47:44;;;;;;;12.93;6.37;;;;;;;8.84;77.47;97582.12;4484642;31;20127;-67
2023/03/14 06:50:12;;;;;;;14.63;5.62;;;;;;;8.85;77.06;97581.97;4485266;31;20115;-67
2023/03/14 06:52:45;;;;;;;16.25;6.32;;;;;;;9.02;76.73;97588.09;4486002;31;20558;-67
2023/03/14 06:55:16;;;;;;;14.35;6.10;;;;;;;9.03;76.31;97581.88;4486150;31;20219;-67
2023/03/14 06:57:44;;;;;;;15.30;6.47;;;;;;;9.13;75.55;97580.94;4486179;31;20120;-67
2023/03/14 07:00:13;;;;;;;15.52;6.20;;;;;;;9.20;76.20;97584.56;4482884;31;20596;-65
2023/03/14 07:02:40;;;;;;;14.93;6.57;;;;;;;9.29;76.01;97594.06;4485420;31;20095;-64
2023/03/14 07:05:11;;;;;;;13.70;6.45;;;;;;;9.30;74.83;97589.69;4483894;31;20104;-64
2023/03/14 07:07:39;;;;;;;11.70;6.07;;;;;;;9.37;74.20;97590.66;4484370;32;20116;-67
2023/03/14 07:10:08;;;;;;;11.77;6.10;;;;;;;9.55;74.45;97577.50;4483483;31;20119;-67
2023/03/14 07:12:36;;;;;;;16.35;5.85;;;;;;;9.73;73.89;97575.56;4480418;31;20116;-67
2023/03/14 07:15:03;;;;;;;10.95;5.60;;;;;;;10.11;73.95;97586.41;4483579;31;20130;-67
2023/03/14 07:17:47;;;;;;;15.23;5.75;;;;;;;10.27;71.03;97585.56;4482170;32;20101;-67
2023/03/14 07:20:17;;;;;;;17.65;5.85;;;;;;;10.59;70.01;97580.50;4483235;31;20123;-67
2023/03/14 07:22:48;;;;;;;9.65;5.82;;;;;;;10.76;69.62;97576.84;4482954;31;20155;-67
2023/03/14 07:25:16;;;;;;;14.48;5.80;;;;;;;10.62;70.01;97590.66;4484690;31;20076;-67
2023/03/14 07:27:45;;;;;;;12.07;5.20;;;;;;;10.86;69.66;97591.59;4479376;31;20100;-67
2023/03/14 07:30:12;;;;;;;16.37;5.85;;;;;;;11.10;68.75;97583.63;4484631;31;20092;-67
2023/03/14 07:32:40;;;;;;;15.35;6.18;;;;;;;11.24;69.36;97574.25;4484323;31;20446;-67
2023/03/14 07:35:08;;;;;;;15.00;5.72;;;;;;;11.30;67.78;97573.56;4483816;31;20787;-67
2023/03/14 07:37:36;;;;;;;12.43;5.32;;;;;;;11.39;66.92;97573.53;4483334;31;20104;-67
2023/03/14 07:40:06;;;;;;;12.57;6.82;;;;;;;11.69;66.58;97561.37;4485016;32;20104;-67
2023/03/14 07:42:34;;;;;;;10.18;5.70;;;;;;;11.76;65.19;97558.88;4481606;31;20156;-67
2023/03/14 07:45:09;;;;;;;10.13;5.20;;;;;;;11.80;65.53;97557.53;4479950;31;20429;-67
2023/03/14 07:47:38;;;;;;;9.82;5.78;;;;;;;12.10;64.49;97571.63;4477036;31;20119;-67
2023/03/14 07:50:06;;;;;;;18.60;6.45;;;;;;;12.20;65.17;97568.72;4482191;31;20100;-67
2023/03/14 07:52:33;;;;;;;18.05;5.53;;;;;;;12.43;63.91;97566.91;4482879;31;20088;-67
2023/03/14 07:55:00;;;;;;;14.90;5.07;;;;;;;12.45;62.93;97558.84;4483061;31;20176;-65
2023/03/14 07:57:27;;;;;;;12.37;6.10;;;;;;;12.62;61.65;97554.22;4483662;31;20096;-65
2023/03/14 07:59:54;;;;;;;40.53;7.68;;;;;;;12.80;60.99;97547.81;4484662;31;20152;-65
2023/03/14 08:02:23;;;;;;;14.60;5.32;;;;;;;12.92;61.95;97551.62;4482278;31;20142;-65
2023/03/14 08:04:51;;;;;;;11.23;5.40;;;;;;;13.04;60.41;97544.91;4478769;31;20205;-65
2023/03/14 08:07:18;;;;;;;13.88;5.87;;;;;;;13.18;63.13;97539.81;4483558;31;20100;-65
2023/03/14 08:09:45;;;;;;;12.60;5.87;;;;;;;12.93;60.22;97527.78;4479730;31;20111;-65
2023/03/14 08:12:13;;;;;;;14.13;6.35;;;;;;;12.99;59.33;97528.03;4478657;31;20100;-65
2023/03/14 08:14:40;;;;;;;11.27;5.68;;;;;;;13.16;60.27;97529.47;4482302;32;20145;-65
2023/03/14 08:17:08;;;;;;;12.40;5.15;;;;;;;13.31;61.40;97525.00;4479232;31;20112;-65
2023/03/14 08:19:35;;;;;;;12.60;5.53;;;;;;;13.51;60.89;97526.25;4476397;31;20201;-65
2023/03/14 08:22:03;;;;;;;8.95;4.75;;;;;;;13.82;59.33;97528.56;4481188;31;20092;-64
2023/03/14 08:24:30;;;;;;;8.45;4.55;;;;;;;13.99;61.33;97529.94;4480041;31;20118;-65
2023/03/14 08:26:58;;;;;;;8.18;4.95;;;;;;;14.30;59.78;97525.31;4477665;31;20151;-65
2023/03/14 08:29:25;;;;;;;13.00;5.62;;;;;;;14.46;56.99;97521.56;4484080;32;20092;-65
2023/03/14 08:31:54;;;;;;;10.25;5.22;;;;;;;14.85;56.65;97522.84;4482759;31;20480;-67
2023/03/14 08:34:22;;;;;;;8.98;4.82;;;;;;;14.89;55.26;97510.91;4485307;32;20122;-67
2023/03/14 08:36:50;;;;;;;9.43;4.43;;;;;;;15.07;56.07;97515.66;4482351;31;20100;-67
2023/03/14 08:39:17;;;;;;;6.07;3.75;;;;;;;15.13;55.22;97522.78;4481782;31;20605;-66
2023/03/14 08:41:44;;;;;;;8.57;3.37;;;;;;;15.25;54.12;97523.84;4478170;31;20108;-68
2023/03/14 08:44:12;;;;;;;8.07;4.45;;;;;;;15.07;52.34;97513.00;4482163;31;20123;-67
2023/03/14 08:46:39;;;;;;;9.13;3.70;;;;;;;15.11;52.22;97518.69;4483833;31;20127;-68
2023/03/14 08:49:06;;;;;;;7.60;3.90;;;;;;;15.22;52.63;97515.50;4483671;31;20119;-68
2023/03/14 08:51:33;;;;;;;9.23;3.40;;;;;;;15.37;52.42;97508.25;4482303;31;20089;-68
2023/03/14 08:54:01;;;;;;;7.45;3.60;;;;;;;15.38;52.41;97501.13;4482281;31;20076;-68
2023/03/14 08:56:28;;;;;;;7.07;3.40;;;;;;;15.25;53.14;97483.44;4484236;31;20107;-68
2023/03/14 08:58:55;;;;;;;6.18;3.80;;;;;;;15.42;52.16;97476.78;4484777;32;20416;-67
2023/03/14 09:01:25;;;;;;;6.87;3.60;;;;;;;15.50;51.67;97474.97;4482986;31;20104;-67
2023/03/14 09:03:52;;;;;;;7.12;3.58;;;;;;;15.58;52.09;97469.53;4478181;31;20104;-65
2023/03/14 09:06:19;;;;;;;6.70;3.37;;;;;;;15.79;52.54;97463.25;4481734;31;20112;-65
2023/03/14 09:08:46;;;;;;;6.70;3.33;;;;;;;15.82;51.99;97467.31;4481903;31;20096;-65
2023/03/14 09:11:14;;;;;;;8.38;3.37;;;;;;;15.79;52.28;97466.72;4482582;31;20096;-65
2023/03/14 09:13:41;;;;;;;10.15;3.47;;;;;;;15.91;52.27;97456.37;4481899;31;20080;-65
2023/03/14 09:16:09;;;;;;;6.53;3.42;;;;;;;16.00;52.90;97454.31;4483776;31;20517;-65
2023/03/14 09:18:36;;;;;;;10.13;4.62;;;;;;;16.06;52.07;97466.69;4482448;31;20115;-65
2023/03/14 09:21:04;;;;;;;4.70;3.15;;;;;;;16.14;52.29;97461.22;4482672;31;20108;-65
2023/03/14 09:23:31;;;;;;;6.68;3.17;;;;;;;16.37;51.08;97449.38;4479781;31;20097;-65
2023/03/14 09:25:59;;;;;;;7.90;3.70;;;;;;;16.52;51.83;97457.09;4482248;31;20148;-65
2023/03/14 09:28:27;;;;;;;7.60;3.42;;;;;;;16.52;51.22;97458.91;4469457;32;20111;-65
2023/03/14 09:30:54;;;;;;;7.75;3.90;;;;;;;16.66;50.78;97466.59;4483887;31;20860;-65
2023/03/14 09:33:22;;;;;;;7.75;2.50;;;;;;;16.61;51.48;97461.13;4479582;31;20088;-65
2023/03/14 09:35:49;;;;;;;3.70;0.93;;;;;;;16.88;50.88;97450.50;4483621;31;20130;-64
2023/03/14 09:38:16;;;;;;;2.35;1.08;;;;;;;17.32;49.17;97440.06;4484346;31;20084;-65
2023/03/14 09:40:44;;;;;;;1.58;0.90;;;;;;;17.50;46.41;97445.47;4483089;31;20191;-65
2023/03/14 09:43:14;;;;;;;3.78;1.10;;;;;;;17.51;46.86;97433.81;4481714;31;20247;-65
2023/03/14 09:45:42;;;;;;;1.45;0.90;;;;;;;17.65;46.84;97420.50;4483388;31;20104;-65
2023/03/14 09:48:20;;;;;;;3.75;1.08;;;;;;;17.78;45.64;97431.00;4478851;31;20186;-65
2023/03/14 09:50:58;;;;;;;3.40;0.90;;;;;;;17.88;45.57;97427.84;4483454;31;20106;-65
2023/03/14 09:53:37;;;;;;;1.27;0.88;;;;;;;17.84;45.65;97432.78;4481558;31;20522;-65
2023/03/14 09:56:11;;;;;;;1.30;0.90;;;;;;;17.84;45.19;97432.78;4477812;31;20121;-65
2023/03/14 09:58:41;;;;;;;7.47;1.00;;;;;;;18.07;44.13;97426.09;4479449;31;20127;-65
2023/03/14 10:01:11;;;;;;;3.37;0.95;;;;;;;18.24;43.31;97415.72;4478173;31;20096;-65
2023/03/14 10:03:38;;;;;;;4.03;1.08;;;;;;;18.42;45.08;97413.06;4482001;31;20202;-67
2023/03/14 10:06:15;;;;;;;1.50;0.80;;;;;;;18.59;42.41;97420.44;4479256;31;20168;-65
2023/03/14 10:08:44;;;;;;;3.42;1.12;;;;;;;18.82;42.15;97411.81;4482838;31;20607;-65
2023/03/14 10:11:15;;;;;;;3.83;1.00;;;;;;;19.14;41.40;97406.31;4481034;31;20159;-65
2023/03/14 10:13:49;;;;;;;2.78;1.42;;;;;;;19.33;41.44;97412.34;4480926;31;20538;-65
2023/03/14 10:16:16;;;;;;;5.32;1.00;;;;;;;19.57;40.44;97394.63;4480703;31;20088;-65
2023/03/14 10:18:46;;;;;;;5.25;0.98;;;;;;;19.74;40.21;97388.66;4479587;31;20651;-65
2023/03/14 10:21:29;;;;;;;2.50;0.80;;;;;;;19.96;39.75;97389.72;4480394;31;20120;-65
2023/03/14 10:24:22;;;;;;;8.85;1.50;;;;;;;19.94;40.06;97393.63;4481852;31;20559;-65
2023/03/14 10:26:53;;;;;;;5.82;1.17;;;;;;;19.96;38.76;97386.25;4481791;31;20092;-65
2023/03/14 10:29:21;;;;;;;3.05;0.98;;;;;;;19.85;40.04;97386.03;4481190;31;20479;-65
2023/03/14 10:32:00;;;;;;;2.20;1.10;;;;;;;19.83;39.50;97389.94;4476911;31;20145;-65
2023/03/14 10:34:36;;;;;;;2.72;1.20;;;;;;;19.93;39.42;97395.50;4481056;31;20398;-65
2023/03/14 10:37:25;;;;;;;4.80;0.95;;;;;;;19.77;39.06;97393.50;4479291;31;20434;-65
2023/03/14 10:39:55;;;;;;;3.37;1.10;;;;;;;19.90;39.76;97384.53;4479116;31;20101;-65
2023/03/14 10:42:34;;;;;;;7.00;1.60;;;;;;;19.62;40.73;97376.16;4479319;31;20120;-65
2023/03/14 10:45:05;;;;;;;7.07;1.00;;;;;;;19.99;40.35;97383.12;4480394;31;20088;-65
2023/03/14 10:47:32;;;;;;;3.08;1.00;;;;;;;20.10;41.12;97369.00;4477261;31;20085;-65
2023/03/14 10:50:30;;;;;;;5.22;1.05;;;;;;;20.24;39.69;97364.25;4477850;31;20131;-65
2023/03/14 10:53:05;;;;;;;3.17;0.80;;;;;;;20.25;39.38;97360.56;4413917;32;20581;-65
2023/03/14 10:55:40;;;;;;;2.30;1.23;;;;;;;20.38;38.25;97347.00;4416802;32;20144;-66
2023/03/14 10:58:46;;;;;;;6.72;1.00;;;;;;;20.69;38.94;97346.81;4418113;32;20130;-65
2023/03/14 11:01:25;;;;;;;4.18;1.10;;;;;;;20.68;37.85;97332.72;4382464;32;20585;-65
2023/03/14 11:04:01;;;;;;;5.82;3.53;;;;;;;20.52;39.22;97334.25;4385687;32;20118;-65
2023/03/14 11:06:49;;;;;;;2.03;0.93;;;;;;;20.18;38.61;97342.09;4378676;32;20460;-65
2023/03/14 11:09:34;;;;;;;3.17;1.08;;;;;;;20.03;39.48;97321.31;4388067;32;20115;-65
2023/03/14 11:12:11;;;;;;;0.90;0.70;;;;;;;19.94;38.66;97320.03;4375130;32;20580;-65
2023/03/14 11:14:43;;;;;;;3.83;0.77;;;;;;;19.87;38.83;97321.22;4386555;32;20420;-65
2023/03/14 11:17:19;;;;;;;2.60;1.10;;;;;;;19.80;38.93;97316.84;4375522;32;20531;-65
2023/03/14 11:19:52;;;;;;;5.28;0.90;;;;;;;19.91;39.29;97307.22;4381483;32;20107;-65
2023/03/14 11:22:44;;;;;;;9.67;1.23;;;;;;;19.60;38.93;97303.03;4379197;32;20111;-65
2023/03/14 11:25:18;;;;;;;6.22;1.20;;;;;;;19.51;39.86;97297.25;4378076;32;20171;-65
2023/03/14 11:28:08;;;;;;;;;;;;;;;19.74;38.60;97285.00;4376226;32;20098;-65
2023/03/14 11:30:42;;;;;;;3.00;1.05;;;;;;;19.52;39.31;97300.75;4422363;32;20015;-65
2023/03/14 11:33:21;;;;;;;;;;;;;;;19.37;39.27;97303.84;4437039;32;20135;-65
2023/03/14 11:36:09;;;;;;;3.72;1.00;;;;;;;19.19;39.61;97294.13;4438749;32;19998;-65
2023/03/14 11:38:46;;;;;;;1.33;0.75;;;;;;;19.10;40.20;97283.84;4471733;32;20080;-65
2023/03/14 11:41:19;;;;;;;0.90;0.62;;;;;;;18.91;40.70;97277.81;4482945;31;20092;-65
2023/03/14 11:43:48;;;;;;;1.60;0.62;;;;;;;18.77;41.32;97286.97;4480024;31;20101;-65